Time;durP1;ratioP1;P1;durP2;ratioP2;P2;SDS_P1;SDS_P2;PMS_P1;PMS_P2;Temp;Humidity;BMP_temperature;BMP_pressure;BME280_temperature;BME280_humidity;BME280_pressure;Samples;Min_cycle;Max_cycle;Signal;HPM_P1;HPM_P2
2022/09/24 00:00:48;;;;;;;3.58;2.53;;;;;;;17.50;100.00;99756.13;5007510;28;20041;-79
2022/09/24 00:03:13;;;;;;;7.23;2.47;;;;;;;17.51;100.00;99744.47;5012385;28;20048;-79
2022/09/24 00:05:40;;;;;;;5.60;2.20;;;;;;;17.51;100.00;99756.97;5008493;28;20033;-79
2022/09/24 00:08:08;;;;;;;6.72;2.42;;;;;;;17.50;100.00;99748.13;5009349;28;20495;-79
2022/09/24 00:10:38;;;;;;;4.30;2.60;;;;;;;17.49;100.00;99743.84;5010325;28;20021;-78
2022/09/24 00:13:07;;;;;;;3.08;2.15;;;;;;;17.48;100.00;99749.34;5010111;28;20069;-78
2022/09/24 00:15:38;;;;;;;2.25;2.05;;;;;;;17.45;100.00;99742.53;5010176;28;21395;-79
2022/09/24 00:18:04;;;;;;;;;;;;;;;17.43;100.00;99736.56;5008584;28;20034;-78
2022/09/24 00:20:30;;;;;;;6.40;2.42;;;;;;;17.42;100.00;99748.22;5011541;28;19917;-80
2022/09/24 00:22:56;;;;;;;2.95;2.65;;;;;;;17.38;100.00;99746.91;5008689;28;20054;-80
2022/09/24 00:28:05;;;;;;;3.53;2.45;;;;;;;17.37;100.00;99755.13;5010925;28;20038;-80
2022/09/24 00:30:30;;;;;;;3.90;2.75;;;;;;;17.36;100.00;99748.97;5009285;28;20451;-80
2022/09/24 00:32:56;;;;;;;4.00;2.50;;;;;;;17.38;100.00;99746.91;5009824;28;20534;-80
2022/09/24 00:35:22;;;;;;;4.07;2.75;;;;;;;17.38;100.00;99754.09;4990297;28;20113;-79
2022/09/24 00:37:48;;;;;;;4.60;2.42;;;;;;;17.36;100.00;99748.97;5011701;28;20044;-78
2022/09/24 00:40:14;;;;;;;5.25;2.53;;;;;;;17.34;100.00;99742.97;5008343;28;20026;-80
2022/09/24 00:42:39;;;;;;;3.90;2.50;;;;;;;17.32;100.00;99742.31;5008433;28;20041;-80
2022/09/24 00:45:08;;;;;;;2.53;2.33;;;;;;;17.31;100.00;99732.69;5010287;28;20029;-80
2022/09/24 00:47:38;;;;;;;3.13;2.47;;;;;;;17.31;100.00;99737.19;5008597;28;20404;-81
2022/09/24 00:50:06;;;;;;;8.63;3.10;;;;;;;17.31;100.00;99739.84;5007117;28;20084;-81
2022/09/24 00:52:37;;;;;;;4.18;2.53;;;;;;;17.31;100.00;99747.84;5008433;28;20038;-80
2022/09/24 00:55:02;;;;;;;2.30;2.10;;;;;;;17.31;100.00;99750.50;5009894;28;20517;-79
2022/09/24 00:57:28;;;;;;;3.30;2.30;;;;;;;17.31;100.00;99756.69;5007058;28;20057;-80
2022/09/24 00:59:55;;;;;;;3.10;2.42;;;;;;;17.30;100.00;99747.00;5005764;28;20408;-80
2022/09/24 01:02:20;;;;;;;4.07;2.63;;;;;;;17.27;100.00;99744.69;5006841;28;20030;-80
2022/09/24 01:04:47;;;;;;;3.25;2.50;;;;;;;17.25;100.00;99741.41;5007424;28;20137;-80
2022/09/24 01:07:13;;;;;;;3.30;2.50;;;;;;;17.27;100.00;99736.69;5006943;28;20042;-80
2022/09/24 01:09:40;;;;;;;5.25;2.63;;;;;;;17.27;100.00;99739.34;5005518;28;20034;-79
2022/09/24 01:12:23;;;;;;;2.63;2.30;;;;;;;17.29;100.00;99740.03;5010061;28;20044;-79
2022/09/24 01:14:55;;;;;;;5.53;2.60;;;;;;;17.32;100.00;99734.31;5007664;28;20124;-79
2022/09/24 01:17:51;;;;;;;5.80;2.78;;;;;;;17.34;100.00;99726.97;4988411;28;20088;-80
2022/09/24 01:20:45;;;;;;;3.80;2.35;;;;;;;17.35;100.00;99717.97;5007167;28;20078;-80
2022/09/24 01:23:42;;;;;;;5.05;2.50;;;;;;;17.35;100.00;99720.63;5005962;28;20088;-80
2022/09/24 01:26:27;;;;;;;6.35;2.40;;;;;;;17.34;100.00;99718.97;4968089;28;20078;-78
2022/09/24 01:29:21;;;;;;;4.15;2.70;;;;;;;17.34;100.00;99729.63;5008665;28;20029;-79
2022/09/24 01:31:55;;;;;;;3.10;2.75;;;;;;;17.32;100.00;99715.63;4989925;28;20033;-79
2022/09/24 01:34:26;;;;;;;4.07;2.60;;;;;;;17.32;100.00;99715.63;5007480;28;20400;-79
2022/09/24 01:36:54;;;;;;;3.67;3.05;;;;;;;17.29;100.00;99710.69;5008180;28;20029;-80
2022/09/24 01:39:21;;;;;;;4.88;2.75;;;;;;;17.24;100.00;99702.41;5008560;28;20053;-79
2022/09/24 01:41:48;;;;;;;4.53;2.33;;;;;;;17.17;100.00;99706.78;5005312;28;20078;-79
2022/09/24 01:44:17;;;;;;;5.57;2.10;;;;;;;17.12;100.00;99703.84;5008526;28;20045;-80
2022/09/24 01:46:43;;;;;;;3.30;2.70;;;;;;;17.07;100.00;99695.56;5007410;28;20041;-80
2022/09/24 01:49:09;;;;;;;2.55;2.17;;;;;;;17.01;100.00;99685.63;5005252;28;20041;-81
2022/09/24 01:51:54;;;;;;;3.70;2.33;;;;;;;17.00;100.00;99699.97;5005253;28;20029;-79
2022/09/24 01:54:51;;;;;;;5.78;2.05;;;;;;;16.96;100.00;99696.84;5007587;28;20045;-81
2022/09/24 01:57:28;;;;;;;3.17;2.28;;;;;;;16.94;100.00;99698.00;4959243;28;20116;-80
2022/09/24 01:59:54;;;;;;;4.97;2.47;;;;;;;16.87;100.00;99689.06;5007373;28;20394;-80
2022/09/24 02:02:38;;;;;;;5.57;2.45;;;;;;;16.79;100.00;99698.78;5010960;28;20033;-81
2022/09/24 02:05:11;;;;;;;5.95;2.47;;;;;;;16.74;100.00;99690.50;5011484;28;20048;-80
2022/09/24 02:07:49;;;;;;;3.90;2.75;;;;;;;16.67;100.00;99689.56;5010093;28;20037;-80
2022/09/24 02:10:17;;;;;;;2.78;2.55;;;;;;;16.63;100.00;99685.59;5009623;28;20038;-78
2022/09/24 02:12:49;;;;;;;3.13;2.80;;;;;;;16.60;100.00;99687.81;4994158;28;20497;-81
2022/09/24 02:15:21;;;;;;;4.30;2.47;;;;;;;16.55;100.00;99672.28;5010669;28;20042;-79
2022/09/24 02:17:53;;;;;;;3.35;2.75;;;;;;;16.54;100.00;99668.00;5007697;28;20092;-79
2022/09/24 02:20:21;;;;;;;3.42;2.45;;;;;;;16.55;100.00;99664.31;5014076;28;20029;-80
2022/09/24 02:22:48;;;;;;;4.45;2.47;;;;;;;16.55;100.00;99653.66;5010197;28;20032;-80
2022/09/24 02:25:24;;;;;;;5.20;2.40;;;;;;;16.59;100.00;99655.00;5010934;28;20080;-81
2022/09/24 02:27:50;;;;;;;5.32;2.40;;;;;;;16.60;100.00;99651.34;5012583;28;20030;-81
2022/09/24 02:30:16;;;;;;;6.53;2.50;;;;;;;16.62;100.00;99654.63;5008351;28;20501;-80
2022/09/24 02:32:43;;;;;;;3.22;2.30;;;;;;;16.60;100.00;99642.50;5012873;28;20037;-80
2022/09/24 02:35:11;;;;;;;3.03;2.38;;;;;;;16.59;100.00;99644.34;5008071;28;20030;-79
2022/09/24 02:37:42;;;;;;;2.42;2.20;;;;;;;16.59;100.00;99638.16;5013342;28;20026;-80
2022/09/24 02:40:10;;;;;;;6.10;2.42;;;;;;;16.62;100.00;99635.16;5010145;28;20030;-80
2022/09/24 02:42:36;;;;;;;2.88;2.00;;;;;;;16.63;100.00;99634.97;5010117;28;20076;-80
2022/09/24 02:45:03;;;;;;;3.15;2.13;;;;;;;16.64;100.00;99635.81;5011922;28;20034;-80
2022/09/24 02:47:29;;;;;;;4.68;2.92;;;;;;;16.65;100.00;99627.66;5013485;28;20030;-80
2022/09/24 02:49:57;;;;;;;3.53;2.38;;;;;;;16.66;100.00;99631.97;5011654;28;20034;-80
2022/09/24 02:52:23;;;;;;;3.35;2.17;;;;;;;16.66;100.00;99631.97;5009911;28;20069;-79
2022/09/24 02:54:49;;;;;;;4.63;2.08;;;;;;;16.67;100.00;99638.94;5013182;28;20073;-79
2022/09/24 02:57:18;;;;;;;5.38;2.50;;;;;;;16.67;100.00;99630.94;5010113;28;20068;-79
2022/09/24 02:59:44;;;;;;;4.43;2.20;;;;;;;16.69;100.00;99638.75;5009929;28;20573;-80
2022/09/24 03:02:11;;;;;;;4.25;2.35;;;;;;;16.67;100.00;99644.25;4994247;28;20061;-79
2022/09/24 03:04:36;;;;;;;4.70;2.50;;;;;;;16.67;100.00;99646.94;4992730;28;20037;-79
2022/09/24 03:07:02;;;;;;;3.40;2.47;;;;;;;16.68;100.00;99647.75;5010713;28;20041;-78
2022/09/24 03:09:29;;;;;;;2.25;2.10;;;;;;;16.66;100.00;99649.78;5009944;28;20124;-79
2022/09/24 03:11:56;;;;;;;2.28;2.05;;;;;;;16.63;100.00;99650.97;4995646;28;20040;-79
2022/09/24 03:14:21;;;;;;;2.75;2.35;;;;;;;16.62;100.00;99649.31;5009365;28;20077;-79
2022/09/24 03:16:47;;;;;;;3.25;2.53;;;;;;;16.54;100.00;99652.03;5009700;28;20025;-78
2022/09/24 03:19:12;;;;;;;2.60;2.40;;;;;;;16.39;100.00;99653.78;5010053;28;20066;-79
2022/09/24 03:21:37;;;;;;;5.43;2.42;;;;;;;16.24;100.00;99655.56;5010051;28;20022;-79
2022/09/24 03:24:03;;;;;;;5.32;2.75;;;;;;;16.09;100.00;99657.31;5012128;28;20053;-79
2022/09/24 03:26:28;;;;;;;3.22;2.30;;;;;;;15.96;100.00;99658.69;5008155;28;20112;-79
2022/09/24 03:28:54;;;;;;;3.35;2.85;;;;;;;15.93;100.00;99669.72;5012868;28;20044;-79
2022/09/24 03:31:23;;;;;;;3.50;3.20;;;;;;;15.93;100.00;99664.38;5009344;28;20053;-79
2022/09/24 03:33:49;;;;;;;5.35;3.28;;;;;;;15.88;100.00;99665.91;5009343;28;20425;-80
2022/09/24 03:36:16;;;;;;;4.25;2.92;;;;;;;15.87;100.00;99659.75;5010707;28;20551;-78
2022/09/24 03:38:44;;;;;;;4.57;3.05;;;;;;;15.88;100.00;99666.75;5010191;28;20037;-80
2022/09/24 03:41:10;;;;;;;3.60;3.30;;;;;;;15.90;100.00;99670.03;5007668;28;20113;-78
2022/09/24 03:43:36;;;;;;;5.53;3.63;;;;;;;15.88;100.00;99672.06;5007138;28;20038;-81
2022/09/24 03:46:05;;;;;;;4.55;2.85;;;;;;;15.86;100.00;99660.75;5012948;28;20040;-82
2022/09/24 03:48:36;;;;;;;7.75;3.33;;;;;;;15.81;100.00;99660.47;4991325;28;20430;-81
2022/09/24 03:51:13;;;;;;;4.32;3.47;;;;;;;15.73;100.00;99652.50;5009258;28;20485;-81
2022/09/24 03:53:39;;;;;;;4.97;2.97;;;;;;;15.69;100.00;99651.19;5008049;28;20030;-80
2022/09/24 03:56:06;;;;;;;3.10;2.90;;;;;;;15.69;100.00;99648.53;5009860;28;20028;-80
2022/09/24 03:58:36;;;;;;;4.30;2.70;;;;;;;15.71;100.00;99641.22;5009117;28;20029;-80
2022/09/24 04:01:01;;;;;;;3.88;2.92;;;;;;;15.70;100.00;99642.22;5018617;28;20443;-80
2022/09/24 04:03:27;;;;;;;2.92;2.67;;;;;;;15.68;100.00;99643.38;5011595;28;20555;-79
2022/09/24 04:05:52;;;;;;;5.03;3.00;;;;;;;15.67;100.00;99642.56;5008966;28;20061;-79
2022/09/24 04:08:19;;;;;;;4.35;3.00;;;;;;;15.63;100.00;99635.09;5009156;28;20116;-79
2022/09/24 04:10:45;;;;;;;3.53;3.00;;;;;;;15.60;100.00;99632.78;5010073;28;20053;-79
2022/09/24 04:13:12;;;;;;;8.18;4.15;;;;;;;15.58;100.00;99630.31;5012009;28;20037;-78
2022/09/24 04:15:37;;;;;;;4.75;3.70;;;;;;;15.61;100.00;99629.13;5008343;28;20065;-80
2022/09/24 04:18:03;;;;;;;5.25;3.22;;;;;;;15.66;100.00;99632.09;5008044;28;20156;-79
2022/09/24 04:20:29;;;;;;;3.03;2.75;;;;;;;15.72;100.00;99626.94;5011399;28;20033;-80
2022/09/24 04:22:56;;;;;;;4.47;3.10;;;;;;;15.74;100.00;99630.22;5008436;28;20041;-80
2022/09/24 04:25:23;;;;;;;6.57;3.58;;;;;;;15.71;100.00;99627.91;5008541;28;20390;-78
2022/09/24 04:27:57;;;;;;;5.15;3.70;;;;;;;15.66;100.00;99622.31;5010224;28;20196;-79
2022/09/24 04:30:24;;;;;;;6.80;4.30;;;;;;;15.63;100.00;99627.13;5009104;28;20029;-78
2022/09/24 04:32:50;;;;;;;6.07;4.15;;;;;;;15.63;100.00;99619.13;5010585;28;20499;-80
2022/09/24 04:35:23;;;;;;;4.28;3.88;;;;;;;15.64;100.00;99618.13;5006843;28;20033;-79
2022/09/24 04:37:50;;;;;;;5.93;3.97;;;;;;;15.64;100.00;99621.63;4993969;28;20038;-79
2022/09/24 04:40:16;;;;;;;4.90;3.47;;;;;;;15.66;100.00;99613.47;5008432;28;20386;-79
2022/09/24 04:42:46;;;;;;;4.53;3.58;;;;;;;15.69;100.00;99621.94;4990359;28;20045;-79
2022/09/24 04:45:14;;;;;;;3.90;3.23;;;;;;;15.72;100.00;99624.25;5007800;28;20101;-80
2022/09/24 04:47:40;;;;;;;5.28;3.58;;;;;;;15.76;100.00;99614.09;5005004;28;20022;-79
2022/09/24 04:50:08;;;;;;;4.85;3.50;;;;;;;15.75;100.00;99623.06;5007860;28;20030;-80
2022/09/24 04:52:33;;;;;;;4.30;3.58;;;;;;;15.74;100.00;99627.56;5008939;28;20030;-79
2022/09/24 04:55:00;;;;;;;6.97;3.60;;;;;;;15.72;100.00;99621.59;4993209;28;20037;-79
2022/09/24 04:57:28;;;;;;;3.80;3.50;;;;;;;15.71;100.00;99622.59;4991216;28;20394;-79
2022/09/24 04:59:54;;;;;;;4.18;3.10;;;;;;;15.73;100.00;99630.38;5007874;28;20038;-79
2022/09/24 05:02:20;;;;;;;4.38;3.15;;;;;;;15.73;100.00;99622.41;5009564;28;20030;-78
2022/09/24 05:04:46;;;;;;;3.35;3.05;;;;;;;15.72;100.00;99618.94;5008463;28;20084;-78
2022/09/24 05:07:12;;;;;;;5.10;3.38;;;;;;;15.72;100.00;99616.28;5007206;28;20046;-79
2022/09/24 05:09:38;;;;;;;7.07;3.60;;;;;;;15.72;100.00;99610.97;5009071;28;20069;-80
2022/09/24 05:12:04;;;;;;;6.00;3.03;;;;;;;15.73;100.00;99615.25;5010153;28;20065;-78
2022/09/24 05:14:29;;;;;;;7.65;3.30;;;;;;;15.70;100.00;99610.28;5008963;28;20039;-80
2022/09/24 05:16:55;;;;;;;3.50;2.90;;;;;;;15.68;100.00;99614.13;5007821;28;20078;-80
2022/09/24 05:19:21;;;;;;;4.20;2.95;;;;;;;15.68;100.00;99619.44;5007285;28;20093;-80
2022/09/24 05:21:46;;;;;;;3.63;3.10;;;;;;;15.69;100.00;99615.78;5008009;28;20084;-80
2022/09/24 05:24:12;;;;;;;3.55;3.15;;;;;;;15.71;100.00;99622.59;5010701;28;20030;-80
2022/09/24 05:29:22;;;;;;;4.50;3.00;;;;;;;15.74;100.00;99624.91;5008606;28;20525;-80
2022/09/24 05:31:48;;;;;;;7.13;3.17;;;;;;;15.75;100.00;99634.53;5006612;28;20053;-80
2022/09/24 05:34:14;;;;;;;3.25;2.95;;;;;;;15.75;100.00;99633.72;5007556;28;20125;-81
2022/09/24 05:36:42;;;;;;;5.25;3.35;;;;;;;15.76;100.00;99644.19;5008095;28;20471;-80
2022/09/24 05:39:08;;;;;;;3.55;2.70;;;;;;;15.78;100.00;99650.19;5009534;28;20053;-80
2022/09/24 05:41:33;;;;;;;4.00;3.33;;;;;;;15.81;100.00;99648.97;5009189;28;21101;-78
2022/09/24 05:43:59;;;;;;;3.38;3.08;;;;;;;15.84;100.00;99651.31;5008232;28;20095;-79
2022/09/24 05:46:25;;;;;;;3.55;3.25;;;;;;;15.87;100.00;99654.44;5010464;28;20037;-80
2022/09/24 05:48:51;;;;;;;3.55;2.97;;;;;;;15.86;100.00;99650.13;5007775;28;20371;-80
2022/09/24 05:51:16;;;;;;;5.47;2.72;;;;;;;15.88;100.00;99652.63;5007294;28;20042;-79
2022/09/24 05:53:42;;;;;;;5.53;2.78;;;;;;;15.88;100.00;99658.75;5008595;28;20060;-80
2022/09/24 05:56:09;;;;;;;3.95;3.25;;;;;;;15.86;100.00;99655.44;5008189;28;20470;-79
2022/09/24 05:58:34;;;;;;;3.30;2.97;;;;;;;15.85;100.00;99651.13;4989530;28;20041;-81
2022/09/24 06:01:02;;;;;;;4.20;2.85;;;;;;;15.85;100.00;99652.94;5007659;28;20042;-77
2022/09/24 06:03:30;;;;;;;5.15;3.20;;;;;;;15.79;100.00;99651.81;5009478;28;20045;-78
2022/09/24 06:05:58;;;;;;;6.07;3.58;;;;;;;15.78;100.00;99644.84;5007384;28;20034;-77
2022/09/24 06:08:23;;;;;;;4.65;3.50;;;;;;;15.79;100.00;99643.00;5007057;28;20091;-77
2022/09/24 06:10:49;;;;;;;8.70;3.25;;;;;;;15.81;100.00;99646.31;5008049;28;20113;-79
2022/09/24 06:13:19;;;;;;;4.32;3.13;;;;;;;15.81;100.00;99644.50;5008034;28;20623;-79
2022/09/24 06:15:46;;;;;;;3.53;3.15;;;;;;;15.84;100.00;99649.47;5005892;28;20532;-79
2022/09/24 06:18:11;;;;;;;9.90;4.03;;;;;;;15.85;100.00;99653.78;5008694;28;20104;-79
2022/09/24 06:20:37;;;;;;;6.22;3.67;;;;;;;15.86;100.00;99652.78;5009679;28;20368;-78
2022/09/24 06:23:03;;;;;;;5.55;4.18;;;;;;;15.89;100.00;99659.59;5004920;28;20035;-80
2022/09/24 06:25:29;;;;;;;5.55;3.53;;;;;;;15.90;100.00;99654.06;4996966;28;20037;-78
2022/09/24 06:27:59;;;;;;;5.05;3.80;;;;;;;15.93;100.00;99659.06;4999023;28;20312;-82
2022/09/24 06:30:44;;;;;;;6.18;4.43;;;;;;;15.97;100.00;99664.84;5009678;28;20030;-82
2022/09/24 06:33:11;;;;;;;6.50;4.28;;;;;;;16.00;100.00;99663.69;5007213;28;20510;-81
2022/09/24 06:35:39;;;;;;;5.75;4.10;;;;;;;16.03;100.00;99663.31;4987592;28;20113;-79
2022/09/24 06:38:07;;;;;;;5.70;4.43;;;;;;;16.06;100.00;99665.66;4984936;28;20037;-81
2022/09/24 06:40:33;;;;;;;4.20;3.90;;;;;;;16.06;100.00;99665.66;5007082;28;20041;-80
2022/09/24 06:42:58;;;;;;;5.15;4.32;;;;;;;16.07;100.00;99670.81;5006331;28;20824;-78
2022/09/24 06:45:25;;;;;;;4.68;4.07;;;;;;;16.06;100.00;99668.31;4992015;28;20175;-79
2022/09/24 06:47:56;;;;;;;5.28;3.97;;;;;;;16.05;100.00;99662.16;5006580;28;20073;-80
2022/09/24 06:50:23;;;;;;;8.27;4.15;;;;;;;16.03;100.00;99663.31;4995301;28;20483;-78
2022/09/24 06:52:49;;;;;;;5.05;4.35;;;;;;;16.01;100.00;99662.69;5013005;28;20164;-78
2022/09/24 06:55:15;;;;;;;5.82;3.90;;;;;;;16.01;100.00;99665.34;5008746;28;20049;-79
2022/09/24 06:57:41;;;;;;;8.30;4.22;;;;;;;16.02;100.00;99667.84;5012798;28;20025;-79
2022/09/24 07:00:07;;;;;;;4.90;4.20;;;;;;;16.05;100.00;99672.81;4988717;28;20022;-79
2022/09/24 07:02:32;;;;;;;5.28;4.78;;;;;;;16.04;100.00;99678.31;5012031;28;20030;-80
2022/09/24 07:04:58;;;;;;;5.57;5.05;;;;;;;16.01;100.00;99681.31;5013598;28;20029;-80
2022/09/24 07:07:30;;;;;;;9.90;7.07;;;;;;;16.00;100.00;99695.63;5010167;28;20029;-81
2022/09/24 07:09:56;;;;;;;9.48;6.00;;;;;;;16.00;100.00;99690.31;4995243;28;20364;-80
2022/09/24 07:12:22;;;;;;;7.40;5.85;;;;;;;15.98;100.00;99691.31;5010439;28;20060;-81
2022/09/24 07:14:48;;;;;;;8.13;6.57;;;;;;;16.01;100.00;99691.97;5012338;28;20125;-81
2022/09/24 07:17:14;;;;;;;7.85;6.50;;;;;;;16.03;100.00;99696.09;5013478;28;20446;-81
2022/09/24 07:19:40;;;;;;;8.07;7.35;;;;;;;16.07;100.00;99699.25;4993984;28;20041;-82
2022/09/24 07:22:05;;;;;;;9.70;8.80;;;;;;;16.09;100.00;99705.22;5007129;28;20065;-83
2022/09/24 07:24:31;;;;;;;14.52;10.52;;;;;;;16.12;100.00;99702.22;5010676;28;20073;-80
2022/09/24 07:26:56;;;;;;;13.32;10.23;;;;;;;16.15;100.00;99699.19;5012732;28;20055;-78
2022/09/24 07:29:22;;;;;;;11.27;9.48;;;;;;;16.19;100.00;99705.84;5013208;28;20052;-81
2022/09/24 07:31:48;;;;;;;10.77;9.07;;;;;;;16.20;100.00;99708.31;5012395;28;20517;-79
2022/09/24 07:34:13;;;;;;;14.95;8.98;;;;;;;16.22;100.00;99711.66;5011881;28;20030;-79
2022/09/24 07:36:40;;;;;;;11.73;9.05;;;;;;;16.24;100.00;99709.66;5006059;28;20065;-80
2022/09/24 07:39:05;;;;;;;9.20;8.18;;;;;;;16.22;100.00;99716.13;5012713;28;20068;-80
2022/09/24 07:41:31;;;;;;;17.25;10.63;;;;;;;16.21;100.00;99722.47;5014628;28;20042;-82
2022/09/24 07:43:57;;;;;;;19.85;12.85;;;;;;;16.20;100.00;99718.16;5015073;28;20035;-79
2022/09/24 07:46:23;;;;;;;15.60;12.05;;;;;;;16.18;100.00;99717.50;5017287;28;20332;-80
2022/09/24 07:48:53;;;;;;;15.80;12.05;;;;;;;16.19;100.00;99719.16;5009063;28;20053;-79
2022/09/24 07:51:18;;;;;;;13.43;11.52;;;;;;;16.19;100.00;99716.50;5002067;28;20041;-79
2022/09/24 07:53:44;;;;;;;12.95;11.65;;;;;;;16.20;100.00;99723.50;5003722;28;20033;-80
2022/09/24 07:56:10;;;;;;;12.63;11.27;;;;;;;16.20;100.00;99724.28;5003158;28;20518;-79
2022/09/24 07:58:35;;;;;;;12.93;10.82;;;;;;;16.19;100.00;99727.16;5004046;28;20117;-81
2022/09/24 08:01:01;;;;;;;12.20;11.00;;;;;;;16.15;100.00;99728.47;5001668;28;20092;-81
2022/09/24 08:03:27;;;;;;;14.63;11.65;;;;;;;16.09;100.00;99735.34;5008121;28;20037;-81
2022/09/24 08:05:57;;;;;;;12.80;10.50;;;;;;;16.04;100.00;99734.19;5006310;28;20045;-80
2022/09/24 08:08:23;;;;;;;13.45;12.05;;;;;;;16.00;100.00;99738.22;4988757;28;20038;-79
2022/09/24 08:10:48;;;;;;;13.98;10.98;;;;;;;15.98;100.00;99741.03;5006114;28;20403;-78
2022/09/24 08:13:14;;;;;;;12.85;11.45;;;;;;;15.98;100.00;99752.53;5007092;28;20475;-79
2022/09/24 08:15:40;;;;;;;16.17;11.95;;;;;;;15.98;100.00;99762.34;5006313;28;20402;-80
2022/09/24 08:18:05;;;;;;;12.90;11.65;;;;;;;15.98;100.00;99757.00;5012389;28;20733;-82
2022/09/24 08:20:32;;;;;;;14.55;13.15;;;;;;;15.95;100.00;99758.22;4994571;28;20148;-81
2022/09/24 08:23:01;;;;;;;15.13;12.75;;;;;;;15.92;100.00;99763.84;5010591;28;20045;-79
2022/09/24 08:25:27;;;;;;;16.00;13.85;;;;;;;15.89;100.00;99764.22;5007276;28;20418;-83
2022/09/24 08:27:52;;;;;;;17.23;14.32;;;;;;;15.89;100.00;99764.22;4985833;28;20037;-80
2022/09/24 08:30:18;;;;;;;15.13;13.50;;;;;;;15.88;100.00;99757.22;5007890;28;20486;-85
2022/09/24 08:32:49;;;;;;;16.70;13.60;;;;;;;15.87;100.00;99766.22;5008775;28;20036;-84
2022/09/24 08:35:15;;;;;;;15.48;13.88;;;;;;;15.84;100.00;99761.25;4989546;28;20030;-84
2022/09/24 08:37:40;;;;;;;17.83;14.20;;;;;;;15.81;100.00;99758.91;5009984;28;20033;-81
2022/09/24 08:40:13;;;;;;;15.68;14.05;;;;;;;15.77;100.00;99764.75;5007769;28;20411;-87
2022/09/24 08:42:42;;;;;;;18.70;15.05;;;;;;;15.76;100.00;99763.09;5010696;28;20057;-87
2022/09/24 08:48:12;;;;;;;17.50;15.00;;;;;;;15.70;100.00;99769.91;5011193;28;20395;-86
2022/09/24 08:50:51;;;;;;;19.48;15.98;;;;;;;15.68;100.00;99771.91;5013462;28;20034;-88
2022/09/24 08:53:37;;;;;;;19.60;15.90;;;;;;;15.64;100.00;99765.28;5011253;28;20092;-88
2022/09/24 08:56:05;;;;;;;15.68;14.00;;;;;;;15.62;100.00;99772.59;5012856;28;20053;-87
2022/09/24 08:58:44;;;;;;;19.83;15.75;;;;;;;15.59;100.00;99772.09;5012785;28;20050;-88
2022/09/24 09:01:10;;;;;;;16.55;14.18;;;;;;;15.56;100.00;99767.94;5009872;28;20045;-88
2022/09/24 09:03:39;;;;;;;19.95;15.20;;;;;;;15.52;100.00;99771.94;5013940;28;20037;-88
2022/09/24 09:06:15;;;;;;;16.77;15.05;;;;;;;15.51;100.00;99775.56;5013030;28;20662;-87
2022/09/24 09:09:03;;;;;;;17.95;15.20;;;;;;;15.49;100.00;99774.94;5007734;28;20399;-87
2022/09/24 09:11:31;;;;;;;20.60;16.40;;;;;;;15.44;100.00;99764.78;5007386;28;20509;-85
2022/09/24 09:14:18;;;;;;;19.95;16.00;;;;;;;15.37;100.00;99765.63;5009103;28;20030;-83
2022/09/24 09:17:09;;;;;;;17.65;15.80;;;;;;;15.33;100.00;99751.84;5008666;28;20487;-85
2022/09/24 09:19:38;;;;;;;18.67;16.77;;;;;;;15.36;100.00;99761.31;5010760;28;20076;-85
2022/09/24 09:22:12;;;;;;;17.77;15.88;;;;;;;15.38;100.00;99756.63;4994273;28;20034;-86
2022/09/24 09:24:46;;;;;;;16.85;15.15;;;;;;;15.33;100.00;99745.69;4994085;28;20034;-86
2022/09/24 09:27:13;;;;;;;16.95;15.18;;;;;;;15.27;100.00;99749.00;5008270;28;20061;-86
2022/09/24 09:29:41;;;;;;;17.90;16.02;;;;;;;15.28;100.00;99748.03;5011134;28;20080;-86
2022/09/24 09:32:21;;;;;;;17.95;15.40;;;;;;;15.32;100.00;99752.00;5011882;28;20104;-86
2022/09/24 09:35:15;;;;;;;17.08;15.40;;;;;;;15.32;100.00;99749.34;5008507;28;20091;-86
2022/09/24 09:37:54;;;;;;;17.15;15.43;;;;;;;15.27;100.00;99756.97;5003873;28;20113;-87
2022/09/24 09:40:58;;;;;;;18.45;16.40;;;;;;;15.23;100.00;99753.84;5009590;28;20072;-85
2022/09/24 09:43:25;;;;;;;19.00;16.83;;;;;;;15.15;100.00;99754.66;4995225;28;20497;-84
2022/09/24 09:46:09;;;;;;;18.83;16.95;;;;;;;15.01;100.00;99750.03;5026944;28;20038;-84
2022/09/24 09:48:51;;;;;;;21.50;17.73;;;;;;;14.99;100.00;99753.84;5018695;28;20167;-86
2022/09/24 09:51:23;;;;;;;19.80;17.70;;;;;;;15.03;100.00;99748.03;5008060;28;20441;-86
2022/09/24 09:54:02;;;;;;;19.52;17.13;;;;;;;15.06;100.00;99750.38;5011227;28;20034;-85
2022/09/24 09:56:33;;;;;;;22.30;18.20;;;;;;;15.08;100.00;99737.72;5011025;28;20037;-86
2022/09/24 09:59:29;;;;;;;19.98;18.00;;;;;;;15.09;100.00;99742.06;5011424;28;20026;-84
2022/09/24 10:01:56;;;;;;;21.20;17.92;;;;;;;15.04;100.00;99736.41;4974161;28;20050;-86
2022/09/24 10:04:33;;;;;;;23.05;17.95;;;;;;;14.99;100.00;99737.91;5011150;28;20034;-85
2022/09/24 10:07:17;;;;;;;19.98;17.88;;;;;;;14.96;100.00;99733.75;5010878;28;20041;-86
2022/09/24 10:09:44;;;;;;;21.20;19.00;;;;;;;14.98;100.00;99737.06;5007310;28;20030;-86
2022/09/24 10:12:18;;;;;;;23.50;18.85;;;;;;;15.01;100.00;99731.44;5007072;28;20073;-86
2022/09/24 10:14:59;;;;;;;22.60;18.38;;;;;;;15.02;100.00;99734.94;4989271;28;20074;-86
2022/09/24 10:17:37;;;;;;;22.10;19.67;;;;;;;14.94;100.00;99719.81;5008601;28;20245;-86
2022/09/24 10:20:13;;;;;;;27.27;21.75;;;;;;;14.92;100.00;99723.63;5010917;28;20038;-86
2022/09/24 10:22:45;;;;;;;21.75;18.60;;;;;;;14.91;100.00;99721.94;5012390;28;20057;-86
2022/09/24 10:25:25;;;;;;;24.80;19.60;;;;;;;14.89;100.00;99732.78;5010772;28;20108;-86
2022/09/24 10:27:54;;;;;;;25.58;19.92;;;;;;;14.91;100.00;99740.56;4995407;28;20049;-85
2022/09/24 10:30:35;;;;;;;26.45;19.52;;;;;;;14.95;100.00;99742.75;4989070;28;20042;-85
2022/09/24 10:33:03;;;;;;;22.45;18.75;;;;;;;14.94;100.00;99729.59;4998806;28;20125;-85
2022/09/24 10:35:34;;;;;;;19.33;17.27;;;;;;;14.93;100.00;99734.09;5027631;28;20030;-86
2022/09/24 10:38:02;;;;;;;22.25;17.48;;;;;;;14.86;100.00;99722.47;5016040;28;20034;-86
2022/09/24 10:40:36;;;;;;;20.73;18.10;;;;;;;14.83;100.00;99727.28;5014314;28;20486;-86
2022/09/24 10:43:04;;;;;;;22.02;17.52;;;;;;;14.83;100.00;99716.66;5013754;28;20034;-85
2022/09/24 10:46:11;;;;;;;20.88;18.67;;;;;;;14.88;100.00;99725.78;4995892;28;20030;-86
2022/09/24 10:48:40;;;;;;;20.17;18.08;;;;;;;14.94;100.00;99724.28;4959264;28;20132;-86
2022/09/24 10:51:19;;;;;;;20.02;17.92;;;;;;;14.96;100.00;99725.78;5013846;28;20367;-86
2022/09/24 10:54:16;;;;;;;20.15;18.13;;;;;;;14.90;100.00;99726.47;5009876;28;20029;-85
2022/09/24 10:56:54;;;;;;;19.17;17.17;;;;;;;14.88;100.00;99725.78;5009432;28;20037;-86
2022/09/24 10:59:20;;;;;;;20.58;17.90;;;;;;;14.90;100.00;99729.13;5011039;28;20463;-85
2022/09/24 11:01:58;;;;;;;18.58;16.65;;;;;;;14.82;100.00;99731.78;5012851;28;20042;-86
2022/09/24 11:04:30;;;;;;;20.55;17.45;;;;;;;14.77;100.00;99728.78;5013390;28;20045;-85
2022/09/24 11:07:19;;;;;;;19.58;17.42;;;;;;;14.78;100.00;99730.44;5012954;28;20530;-85
2022/09/24 11:09:48;;;;;;;20.27;17.65;;;;;;;14.78;100.00;99725.13;5009415;28;20041;-85
2022/09/24 11:12:34;;;;;;;20.23;17.73;;;;;;;14.76;100.00;99727.13;5009777;28;20025;-86
2022/09/24 11:15:25;;;;;;;19.25;17.25;;;;;;;14.75;100.00;99725.44;4969110;28;20054;-86
2022/09/24 11:17:53;;;;;;;;;;;;;;;14.77;100.00;99728.78;5011739;28;20065;-86
2022/09/24 11:20:28;;;;;;;22.42;18.27;;;;;;;14.79;100.00;99726.78;4993964;28;19963;-85
2022/09/24 11:23:16;;;;;;;21.10;18.55;;;;;;;14.81;100.00;99726.63;5009124;28;20536;-85
2022/09/24 11:25:51;;;;;;;20.08;17.98;;;;;;;14.75;100.00;99723.63;5009375;28;20117;-86
2022/09/24 11:28:54;;;;;;;22.65;18.98;;;;;;;14.74;100.00;99718.47;5010359;28;20044;-86
2022/09/24 11:31:48;;;;;;;22.30;18.98;;;;;;;14.73;100.00;99716.81;5012825;28;20041;-86
2022/09/24 11:34:19;;;;;;;21.92;19.58;;;;;;;14.80;100.00;99714.31;5013403;28;20036;-86
2022/09/24 11:36:56;;;;;;;21.15;18.85;;;;;;;14.80;100.00;99707.19;5014177;28;20829;-85
2022/09/24 11:39:37;;;;;;;20.25;18.17;;;;;;;14.73;100.00;99712.31;5018651;28;20034;-84
2022/09/24 11:42:20;;;;;;;21.50;18.52;;;;;;;14.74;100.00;99703.38;5014417;28;20045;-85